Terminal Aerodrome Forecast
Issued by NWS Charleston, WV

Current Version | Previous Version | Graphics & Text | Print | Product List | Glossary On
Versions: 1 2 3 4 5 6 7 8 9 10 11 12 13 14 15 16 17 18 19 20 21 22
533
FTUS41 KRLX 250550
TAFPKB
TAF
KPKB 250550Z 2506/2606 07006KT P6SM OVC060
     FM251200 05004KT P6SM BKN015 OVC025
     FM251500 07006KT P6SM BKN025
     FM251900 07006KT P6SM BKN100
     FM260100 08004KT P6SM SCT040
     FM260200 VRB03KT P6SM SCT250=

USA.gov is the U.S. government's official web portal to all federal, state and local government web resources and services.